Wetterdaten: Woche 28.10.13 - 03.11.13 (KW44)
Datum Zeit Temp. A. Feuchte A. Luftdruck Regen Wind Richtung Taupunkt Windchill Windben
28.10.2013 00:00 13,4 C 76 % 1002,4 hPa 0,0 l/m 9,1 km/h (2 Bft) SW 9,3 C 11,8 C 21,3 km/h (4 Bft)
28.10.2013 01:00 12,7 C 78 % 1001,9 hPa 0,0 l/m 8,6 km/h (2 Bft) SW 8,9 C 11,3 C 16,5 km/h (3 Bft)
28.10.2013 02:00 12,0 C 82 % 1001,2 hPa 0,0 l/m 8,3 km/h (2 Bft) S-SW 9,0 C 10,8 C 16,1 km/h (3 Bft)
28.10.2013 03:00 11,9 C 84 % 1000,2 hPa 0,0 l/m 7,9 km/h (2 Bft) S 9,2 C 10,9 C 15,3 km/h (3 Bft)
28.10.2013 04:00 12,4 C 84 % 999,2 hPa 0,0 l/m 8,6 km/h (2 Bft) S-SW 9,6 C 11,0 C 17,6 km/h (3 Bft)
28.10.2013 05:00 13,0 C 84 % 998,1 hPa 0,0 l/m 11,1 km/h (2 Bft) S-SW 10,4 C 10,4 C 22,3 km/h (4 Bft)
28.10.2013 06:00 12,8 C 90 % 997,3 hPa 1,0 l/m 10,7 km/h (2 Bft) S 11,1 C 10,4 C 21,0 km/h (4 Bft)
28.10.2013 07:00 12,8 C 92 % 995,9 hPa 0,6 l/m 10,0 km/h (2 Bft) S-SO 11,5 C 10,7 C 18,8 km/h (3 Bft)
28.10.2013 08:00 13,3 C 92 % 994,8 hPa 0,8 l/m 8,7 km/h (2 Bft) S-SW 11,9 C 11,9 C 17,2 km/h (3 Bft)
28.10.2013 09:00 14,2 C 88 % 993,9 hPa 0,4 l/m 13,2 km/h (3 Bft) S 12,2 C 10,9 C 27,5 km/h (5 Bft)
28.10.2013 10:00 15,2 C 83 % 992,7 hPa 0,0 l/m 15,5 km/h (3 Bft) SW 12,4 C 11,3 C 30,5 km/h (5 Bft)
28.10.2013 11:00 16,4 C 79 % 991,8 hPa 0,0 l/m 17,5 km/h (3 Bft) S-SW 12,7 C 12,2 C 32,9 km/h (5 Bft)
28.10.2013 12:00 17,5 C 73 % 991,9 hPa 0,0 l/m 13,9 km/h (3 Bft) SW 12,6 C 14,5 C 31,1 km/h (5 Bft)
28.10.2013 13:00 18,2 C 68 % 991,4 hPa 0,0 l/m 14,5 km/h (3 Bft) SW 12,2 C 15,3 C 32,7 km/h (5 Bft)
28.10.2013 14:00 17,7 C 71 % 992,1 hPa 0,0 l/m 14,9 km/h (3 Bft) SW 12,3 C 14,6 C 35,0 km/h (5 Bft)
28.10.2013 15:00 16,9 C 68 % 993,7 hPa 0,0 l/m 15,7 km/h (3 Bft) SW 10,9 C 13,4 C 36,9 km/h (5 Bft)
28.10.2013 16:00 16,3 C 68 % 995,1 hPa 0,0 l/m 12,3 km/h (2 Bft) W-SW 10,4 C 13,7 C 28,0 km/h (5 Bft)
28.10.2013 17:00 14,3 C 78 % 996,8 hPa 0,4 l/m 9,3 km/h (2 Bft) W-NW 10,4 C 12,7 C 23,7 km/h (4 Bft)
28.10.2013 18:00 13,2 C 77 % 998,5 hPa 0,2 l/m 11,3 km/h (2 Bft) S-SW 9,3 C 10,6 C 25,9 km/h (4 Bft)
28.10.2013 19:00 12,5 C 77 % 999,6 hPa 0,0 l/m 8,9 km/h (2 Bft) W 8,6 C 11,0 C 21,2 km/h (4 Bft)
28.10.2013 20:00 11,9 C 81 % 1000,6 hPa 0,0 l/m 6,1 km/h (2 Bft) SW 8,7 C 11,6 C 14,9 km/h (3 Bft)
28.10.2013 21:00 12,0 C 80 % 1001,4 hPa 0,0 l/m 6,7 km/h (2 Bft) S-SW 8,7 C 11,5 C 15,7 km/h (3 Bft)
28.10.2013 22:00 12,4 C 75 % 1002,2 hPa 0,0 l/m 8,0 km/h (2 Bft) S-SW 8,0 C 11,3 C 20,2 km/h (4 Bft)
28.10.2013 23:00 12,1 C 76 % 1002,9 hPa 0,0 l/m 7,9 km/h (2 Bft) S-SW 7,9 C 11,0 C 18,5 km/h (3 Bft)
29.10.2013 00:00 11,9 C 75 % 1003,6 hPa 0,0 l/m 7,7 km/h (2 Bft) SW 7,7 C 11,1 C 17,2 km/h (3 Bft)
29.10.2013 01:00 11,8 C 75 % 1004,0 hPa 0,0 l/m 6,1 km/h (2 Bft) W-SW 7,5 C 11,6 C 16,0 km/h (3 Bft)
29.10.2013 02:00 11,2 C 77 % 1004,4 hPa 0,0 l/m 5,0 km/h (1 Bft) SW 7,3 C 11,2 C 13,0 km/h (3 Bft)
29.10.2013 03:00 10,5 C 79 % 1004,9 hPa 0,0 l/m 4,1 km/h (1 Bft) S-SW 7,0 C 10,5 C 10,3 km/h (2 Bft)
29.10.2013 04:00 9,8 C 82 % 1005,1 hPa 0,0 l/m 3,8 km/h (1 Bft) S 6,8 C 9,8 C 9,5 km/h (2 Bft)
29.10.2013 05:00 9,4 C 83 % 1005,6 hPa 0,0 l/m 3,5 km/h (1 Bft) S-SW 6,8 C 9,4 C 8,0 km/h (2 Bft)
29.10.2013 06:00 10,0 C 81 % 1005,9 hPa 0,0 l/m 6,3 km/h (2 Bft) SW 6,9 C 9,8 C 14,4 km/h (3 Bft)
29.10.2013 07:00 10,3 C 79 % 1006,5 hPa 0,0 l/m 7,0 km/h (2 Bft) SW 6,7 C 9,7 C 16,8 km/h (3 Bft)
29.10.2013 08:00 10,4 C 78 % 1007,3 hPa 0,0 l/m 7,6 km/h (2 Bft) SW 6,7 C 9,5 C 17,2 km/h (3 Bft)
29.10.2013 09:00 11,7 C 73 % 1007,7 hPa 0,0 l/m 9,2 km/h (2 Bft) SW 7,0 C 9,9 C 23,3 km/h (4 Bft)
29.10.2013 10:00 12,2 C 70 % 1008,1 hPa 0,0 l/m 10,6 km/h (2 Bft) SW 7,0 C 9,8 C 25,2 km/h (4 Bft)
29.10.2013 11:00 11,7 C 76 % 1008,6 hPa 0,0 l/m 9,6 km/h (2 Bft) SW 7,5 C 9,7 C 23,6 km/h (4 Bft)
29.10.2013 12:00 11,8 C 75 % 1009,1 hPa 0,0 l/m 9,4 km/h (2 Bft) SW 7,6 C 10,0 C 21,4 km/h (4 Bft)
29.10.2013 13:00 12,2 C 72 % 1009,4 hPa 0,0 l/m 9,9 km/h (2 Bft) S-SW 7,2 C 10,1 C 23,8 km/h (4 Bft)
29.10.2013 14:00 12,2 C 72 % 1009,6 hPa 0,0 l/m 7,9 km/h (2 Bft) S 7,3 C 11,2 C 18,6 km/h (3 Bft)
29.10.2013 15:00 12,2 C 70 % 1010,3 hPa 0,0 l/m 6,7 km/h (2 Bft) S-SW 6,9 C 11,7 C 16,5 km/h (3 Bft)
29.10.2013 16:00 11,9 C 70 % 1010,9 hPa 0,0 l/m 6,2 km/h (2 Bft) W-NW 6,7 C 11,6 C 16,0 km/h (3 Bft)
29.10.2013 17:00 10,7 C 72 % 1011,3 hPa 0,0 l/m 4,1 km/h (1 Bft) S-SW 5,9 C 10,6 C 10,3 km/h (2 Bft)
29.10.2013 18:00 9,4 C 79 % 1011,8 hPa 0,0 l/m 3,9 km/h (1 Bft) S-SW 5,9 C 9,4 C 9,1 km/h (2 Bft)
29.10.2013 19:00 9,4 C 81 % 1012,4 hPa 0,0 l/m 2,8 km/h (1 Bft) S 6,3 C 9,4 C 6,4 km/h (2 Bft)
29.10.2013 20:00 10,1 C 79 % 1012,7 hPa 0,0 l/m 6,4 km/h (2 Bft) S-SW 6,7 C 9,6 C 14,9 km/h (3 Bft)
29.10.2013 21:00 10,1 C 79 % 1013,3 hPa 0,0 l/m 4,8 km/h (1 Bft) S-SW 6,7 C 10,0 C 13,2 km/h (3 Bft)
29.10.2013 22:00 8,8 C 83 % 1013,6 hPa 0,0 l/m 4,5 km/h (1 Bft) SW 6,1 C 8,8 C 9,9 km/h (2 Bft)
29.10.2013 23:00 8,1 C 86 % 1014,0 hPa 0,0 l/m 4,0 km/h (1 Bft) S-SW 5,9 C 8,1 C 9,1 km/h (2 Bft)
30.10.2013 00:00 8,0 C 88 % 1014,2 hPa 0,0 l/m 5,1 km/h (1 Bft) SW 6,1 C 8,0 C 12,0 km/h (2 Bft)
30.10.2013 01:00 8,2 C 87 % 1014,7 hPa 0,0 l/m 3,6 km/h (1 Bft) S-SW 6,2 C 8,2 C 10,4 km/h (2 Bft)
30.10.2013 02:00 7,4 C 89 % 1015,3 hPa 0,0 l/m 3,2 km/h (1 Bft) S-SW 5,6 C 7,4 C 9,1 km/h (2 Bft)
30.10.2013 03:00 7,2 C 89 % 1015,6 hPa 0,0 l/m 3,6 km/h (1 Bft) SW 5,5 C 7,2 C 9,9 km/h (2 Bft)
30.10.2013 04:00 6,4 C 90 % 1016,1 hPa 0,0 l/m 1,3 km/h (1 Bft) SW 5,0 C 6,4 C 4,5 km/h (1 Bft)
30.10.2013 05:00 5,7 C 92 % 1016,5 hPa 0,0 l/m 0,6 km/h (0 Bft) N 4,4 C 5,7 C 3,2 km/h (1 Bft)
30.10.2013 06:00 5,4 C 92 % 1017,0 hPa 0,0 l/m 0,9 km/h (0 Bft) SW 4,2 C 5,4 C 3,7 km/h (1 Bft)
30.10.2013 07:00 5,3 C 92 % 1017,8 hPa 0,0 l/m 0,8 km/h (0 Bft) SW 4,1 C 5,3 C 4,3 km/h (1 Bft)
30.10.2013 08:00 6,7 C 91 % 1018,6 hPa 0,0 l/m 3,4 km/h (1 Bft) S-SW 5,3 C 6,7 C 8,6 km/h (2 Bft)
30.10.2013 09:00 8,3 C 88 % 1019,3 hPa 0,0 l/m 5,0 km/h (1 Bft) SW 6,4 C 8,3 C 13,7 km/h (3 Bft)
30.10.2013 10:00 9,8 C 84 % 1020,0 hPa 0,0 l/m 6,1 km/h (2 Bft) W-NW 7,2 C 9,5 C 15,7 km/h (3 Bft)
30.10.2013 11:00 10,6 C 80 % 1020,4 hPa 0,0 l/m 7,1 km/h (2 Bft) SW 7,4 C 10,0 C 18,5 km/h (3 Bft)
30.10.2013 12:00 11,1 C 76 % 1020,7 hPa 0,0 l/m 8,1 km/h (2 Bft) W 7,0 C 9,9 C 20,0 km/h (4 Bft)
30.10.2013 13:00 11,5 C 75 % 1021,0 hPa 0,0 l/m 6,1 km/h (2 Bft) SW 7,1 C 11,1 C 16,4 km/h (3 Bft)
30.10.2013 14:00 11,5 C 73 % 1021,4 hPa 0,0 l/m 7,0 km/h (2 Bft) W-SW 6,8 C 10,9 C 18,2 km/h (3 Bft)
30.10.2013 15:00 11,2 C 75 % 1021,8 hPa 0,0 l/m 5,9 km/h (2 Bft) SW 7,0 C 11,2 C 14,4 km/h (3 Bft)
30.10.2013 16:00 10,5 C 77 % 1022,3 hPa 0,0 l/m 4,3 km/h (1 Bft) S-SW 6,6 C 10,5 C 11,4 km/h (2 Bft)
30.10.2013 17:00 9,0 C 81 % 1023,0 hPa 0,0 l/m 1,9 km/h (1 Bft) SW 6,0 C 9,0 C 5,6 km/h (2 Bft)
30.10.2013 18:00 7,4 C 86 % 1023,7 hPa 0,0 l/m 0,3 km/h (0 Bft) N 5,2 C 7,4 C 2,1 km/h (1 Bft)
30.10.2013 19:00 6,0 C 89 % 1024,3 hPa 0,0 l/m 0,2 km/h (0 Bft) N 4,3 C 6,0 C 1,5 km/h (1 Bft)
30.10.2013 20:00 5,3 C 90 % 1024,7 hPa 0,0 l/m 0,1 km/h (0 Bft) N 3,9 C 5,3 C 0,8 km/h (0 Bft)
30.10.2013 21:00 4,9 C 91 % 1025,1 hPa 0,0 l/m 0,0 km/h (0 Bft) N 3,6 C 4,9 C 0,3 km/h (0 Bft)
30.10.2013 22:00 4,1 C 92 % 1025,5 hPa 0,0 l/m 0,0 km/h (0 Bft) N 3,0 C 4,1 C 0,0 km/h (0 Bft)
30.10.2013 23:00 3,3 C 93 % 1025,6 hPa 0,0 l/m 0,0 km/h (0 Bft) N 2,3 C 3,3 C 0,1 km/h (0 Bft)
31.10.2013 00:00 2,6 C 94 % 1025,8 hPa 0,0 l/m 0,0 km/h (0 Bft) N 1,7 C 2,6 C 0,0 km/h (0 Bft)
31.10.2013 01:00 3,1 C 94 % 1025,9 hPa 0,0 l/m 0,1 km/h (0 Bft) N 2,3 C 3,1 C 1,1 km/h (0 Bft)
31.10.2013 02:00 2,9 C 94 % 1025,7 hPa 0,0 l/m 0,3 km/h (0 Bft) S 2,1 C 2,9 C 1,9 km/h (1 Bft)
31.10.2013 03:00 3,3 C 93 % 1025,6 hPa 0,0 l/m 1,0 km/h (0 Bft) S-SW 2,2 C 3,3 C 3,2 km/h (1 Bft)
31.10.2013 04:00 3,1 C 92 % 1025,5 hPa 0,0 l/m 0,6 km/h (0 Bft) S-SW 1,9 C 3,1 C 2,5 km/h (1 Bft)
31.10.2013 05:00 2,3 C 93 % 1025,5 hPa 0,0 l/m 0,0 km/h (0 Bft) N 1,3 C 2,3 C 0,3 km/h (0 Bft)
31.10.2013 06:00 1,6 C 94 % 1025,4 hPa 0,0 l/m 0,0 km/h (0 Bft) N 0,7 C 1,6 C 0,0 km/h (0 Bft)
31.10.2013 07:00 2,1 C 94 % 1025,5 hPa 0,0 l/m 0,1 km/h (0 Bft) S-SW 1,3 C 2,1 C 0,7 km/h (0 Bft)
31.10.2013 08:00 4,1 C 92 % 1025,4 hPa 0,0 l/m 2,4 km/h (1 Bft) S-SW 3,0 C 4,1 C 6,1 km/h (2 Bft)
31.10.2013 09:00 6,5 C 86 % 1025,2 hPa 0,2 l/m 6,0 km/h (2 Bft) S-SW 4,3 C 6,3 C 12,2 km/h (2 Bft)
31.10.2013 10:00 8,7 C 81 % 1025,1 hPa 0,0 l/m 6,6 km/h (2 Bft) SW 5,6 C 8,3 C 14,2 km/h (3 Bft)
31.10.2013 11:00 10,3 C 75 % 1024,6 hPa 0,0 l/m 7,9 km/h (2 Bft) SW 6,1 C 9,2 C 15,2 km/h (3 Bft)
31.10.2013 12:00 11,4 C 71 % 1023,7 hPa 0,0 l/m 7,9 km/h (2 Bft) S-SW 6,3 C 10,3 C 15,8 km/h (3 Bft)
31.10.2013 13:00 12,0 C 67 % 1022,8 hPa 0,0 l/m 8,1 km/h (2 Bft) S-SW 6,0 C 10,9 C 16,5 km/h (3 Bft)
31.10.2013 14:00 11,9 C 66 % 1022,2 hPa 0,0 l/m 7,6 km/h (2 Bft) S-SW 5,7 C 11,0 C 15,2 km/h (3 Bft)
31.10.2013 15:00 11,1 C 68 % 1021,9 hPa 0,0 l/m 6,8 km/h (2 Bft) S 5,4 C 10,7 C 13,4 km/h (3 Bft)
31.10.2013 16:00 10,3 C 70 % 1021,0 hPa 0,0 l/m 5,5 km/h (2 Bft) S 5,0 C 10,2 C 11,8 km/h (2 Bft)
31.10.2013 17:00 9,0 C 72 % 1020,7 hPa 0,0 l/m 2,4 km/h (1 Bft) S-SW 4,3 C 9,0 C 6,2 km/h (2 Bft)
31.10.2013 18:00 7,1 C 79 % 1020,6 hPa 0,0 l/m 0,5 km/h (0 Bft) S 3,6 C 7,1 C 2,7 km/h (1 Bft)
31.10.2013 19:00 7,2 C 79 % 1020,1 hPa 0,0 l/m 3,7 km/h (1 Bft) S-SO 3,8 C 7,2 C 7,6 km/h (2 Bft)
31.10.2013 20:00 6,9 C 82 % 1019,5 hPa 0,0 l/m 1,9 km/h (1 Bft) SW 4,1 C 6,9 C 5,6 km/h (2 Bft)
31.10.2013 21:00 7,1 C 83 % 1019,1 hPa 0,0 l/m 3,8 km/h (1 Bft) S 4,3 C 7,1 C 8,2 km/h (2 Bft)
31.10.2013 22:00 7,4 C 82 % 1018,7 hPa 0,0 l/m 3,5 km/h (1 Bft) S-SO 4,5 C 7,4 C 7,1 km/h (2 Bft)
31.10.2013 23:00 8,2 C 79 % 1018,3 hPa 0,0 l/m 5,3 km/h (1 Bft) S 4,8 C 8,2 C 11,6 km/h (2 Bft)
01.11.2013 00:00 8,2 C 79 % 1017,8 hPa 0,0 l/m 5,3 km/h (1 Bft) S-SW 4,8 C 8,2 C 11,0 km/h (2 Bft)
01.11.2013 01:00 8,5 C 80 % 1017,5 hPa 0,0 l/m 4,2 km/h (1 Bft) SW 5,2 C 8,5 C 9,3 km/h (2 Bft)
01.11.2013 02:00 9,0 C 79 % 1017,3 hPa 0,0 l/m 4,0 km/h (1 Bft) S-SW 5,5 C 9,0 C 9,4 km/h (2 Bft)
01.11.2013 03:00 9,4 C 78 % 1016,8 hPa 0,0 l/m 4,4 km/h (1 Bft) SW 5,8 C 9,4 C 11,2 km/h (2 Bft)
01.11.2013 04:00 9,1 C 82 % 1016,4 hPa 0,0 l/m 3,6 km/h (1 Bft) SW 6,1 C 9,1 C 10,2 km/h (2 Bft)
01.11.2013 05:00 8,6 C 84 % 1016,3 hPa 0,0 l/m 2,8 km/h (1 Bft) SW 6,2 C 8,6 C 8,2 km/h (2 Bft)
01.11.2013 06:00 8,3 C 86 % 1016,3 hPa 0,0 l/m 2,3 km/h (1 Bft) S-SW 6,2 C 8,3 C 6,8 km/h (2 Bft)
01.11.2013 07:00 8,1 C 88 % 1016,4 hPa 0,0 l/m 2,1 km/h (1 Bft) S 6,1 C 8,1 C 5,3 km/h (1 Bft)
01.11.2013 08:00 8,3 C 87 % 1016,6 hPa 0,0 l/m 4,2 km/h (1 Bft) S-SW 6,3 C 8,3 C 8,8 km/h (2 Bft)
01.11.2013 09:00 9,2 C 86 % 1016,7 hPa 0,0 l/m 4,8 km/h (1 Bft) SW 7,0 C 9,2 C 10,8 km/h (2 Bft)
01.11.2013 10:00 10,3 C 84 % 1016,5 hPa 0,0 l/m 6,9 km/h (2 Bft) S-SW 7,7 C 9,8 C 15,4 km/h (3 Bft)
01.11.2013 11:00 10,8 C 83 % 1015,9 hPa 0,0 l/m 7,4 km/h (2 Bft) S-SW 8,0 C 10,0 C 15,0 km/h (3 Bft)
01.11.2013 12:00 10,9 C 83 % 1015,6 hPa 0,0 l/m 7,9 km/h (2 Bft) SW 8,2 C 9,8 C 18,9 km/h (3 Bft)
01.11.2013 13:00 11,2 C 83 % 1015,2 hPa 0,0 l/m 6,6 km/h (2 Bft) S-SW 8,5 C 10,8 C 14,8 km/h (3 Bft)
01.11.2013 14:00 11,7 C 81 % 1014,6 hPa 0,0 l/m 6,0 km/h (2 Bft) SW 8,5 C 11,4 C 13,8 km/h (3 Bft)
01.11.2013 15:00 11,4 C 82 % 1014,0 hPa 0,0 l/m 4,7 km/h (1 Bft) S-SW 8,4 C 11,4 C 10,3 km/h (2 Bft)
01.11.2013 16:00 10,6 C 84 % 1013,5 hPa 0,0 l/m 6,1 km/h (2 Bft) SW 8,0 C 10,4 C 12,6 km/h (3 Bft)
01.11.2013 17:00 9,7 C 86 % 1013,3 hPa 0,0 l/m 5,5 km/h (2 Bft) S 7,6 C 9,7 C 11,2 km/h (2 Bft)
01.11.2013 18:00 8,9 C 88 % 1013,0 hPa 0,0 l/m 3,0 km/h (1 Bft) S-SW 7,0 C 8,9 C 7,0 km/h (2 Bft)
01.11.2013 19:00 8,2 C 90 % 1012,7 hPa 0,0 l/m 1,7 km/h (1 Bft) S 6,7 C 8,2 C 5,5 km/h (2 Bft)
01.11.2013 20:00 7,7 C 91 % 1012,1 hPa 0,0 l/m 1,2 km/h (1 Bft) S 6,4 C 7,7 C 3,9 km/h (1 Bft)
01.11.2013 21:00 7,4 C 92 % 1011,3 hPa 0,0 l/m 0,1 km/h (0 Bft) N 6,1 C 7,4 C 0,8 km/h (0 Bft)
01.11.2013 22:00 7,6 C 91 % 1011,1 hPa 0,0 l/m 1,0 km/h (0 Bft) S-SO 6,2 C 7,6 C 3,7 km/h (1 Bft)
01.11.2013 23:00 7,7 C 89 % 1010,4 hPa 0,0 l/m 0,3 km/h (0 Bft) N 6,0 C 7,7 C 2,0 km/h (1 Bft)
02.11.2013 00:00 7,9 C 88 % 1009,6 hPa 0,0 l/m 1,3 km/h (1 Bft) S-SW 6,1 C 7,9 C 3,9 km/h (1 Bft)
02.11.2013 01:00 8,2 C 87 % 1008,9 hPa 0,0 l/m 1,5 km/h (1 Bft) SO 6,1 C 8,2 C 4,9 km/h (1 Bft)
02.11.2013 02:00 8,2 C 89 % 1007,7 hPa 0,0 l/m 4,3 km/h (1 Bft) S-SW 6,6 C 8,2 C 10,2 km/h (2 Bft)
02.11.2013 03:00 7,6 C 92 % 1006,3 hPa 0,4 l/m 2,3 km/h (1 Bft) S-SO 6,3 C 7,6 C 6,8 km/h (2 Bft)
02.11.2013 04:00 7,3 C 92 % 1004,9 hPa 0,6 l/m 1,7 km/h (1 Bft) S 6,2 C 7,3 C 5,5 km/h (2 Bft)
02.11.2013 05:00 7,3 C 93 % 1003,8 hPa 0,8 l/m 0,9 km/h (0 Bft) O-SO 6,2 C 7,3 C 4,7 km/h (1 Bft)
02.11.2013 06:00 7,2 C 94 % 1002,7 hPa 0,4 l/m 1,0 km/h (0 Bft) S-SO 6,3 C 7,2 C 4,4 km/h (1 Bft)
02.11.2013 07:00 7,3 C 94 % 1001,8 hPa 0,6 l/m 1,0 km/h (0 Bft) S-SO 6,4 C 7,3 C 5,1 km/h (1 Bft)
02.11.2013 08:00 7,8 C 94 % 1001,4 hPa 1,8 l/m 0,5 km/h (0 Bft) SO 6,9 C 7,8 C 2,9 km/h (1 Bft)
02.11.2013 09:00 8,4 C 95 % 1001,0 hPa 1,4 l/m 1,5 km/h (1 Bft) S-SO 7,6 C 8,4 C 5,1 km/h (1 Bft)
02.11.2013 10:00 9,1 C 95 % 1000,8 hPa 0,6 l/m 3,0 km/h (1 Bft) S-SW 8,3 C 9,1 C 7,4 km/h (2 Bft)
02.11.2013 11:00 9,9 C 95 % 1000,7 hPa 0,2 l/m 4,6 km/h (1 Bft) S-SW 9,1 C 9,9 C 11,3 km/h (2 Bft)
02.11.2013 12:00 10,3 C 94 % 1000,7 hPa 0,2 l/m 3,8 km/h (1 Bft) S-SW 9,4 C 10,3 C 9,9 km/h (2 Bft)
02.11.2013 13:00 10,5 C 94 % 1000,8 hPa 0,4 l/m 4,4 km/h (1 Bft) S-SW 9,6 C 10,5 C 12,1 km/h (2 Bft)
02.11.2013 14:00 10,5 C 94 % 1001,0 hPa 0,4 l/m 3,9 km/h (1 Bft) S-SW 9,6 C 10,5 C 9,8 km/h (2 Bft)
02.11.2013 15:00 10,2 C 94 % 1001,3 hPa 0,4 l/m 2,0 km/h (1 Bft) W-SW 9,3 C 10,2 C 6,8 km/h (2 Bft)
02.11.2013 16:00 9,9 C 94 % 1001,6 hPa 0,0 l/m 0,7 km/h (0 Bft) W 9,0 C 9,9 C 4,3 km/h (1 Bft)
02.11.2013 17:00 9,8 C 94 % 1001,9 hPa 0,0 l/m 0,0 km/h (0 Bft) N 8,9 C 9,8 C 0,1 km/h (0 Bft)
02.11.2013 18:00 9,7 C 95 % 1002,1 hPa 0,0 l/m 0,0 km/h (0 Bft) N 8,9 C 9,7 C 0,0 km/h (0 Bft)
02.11.2013 19:00 9,7 C 95 % 1002,0 hPa 0,0 l/m 0,0 km/h (0 Bft) N 8,9 C 9,7 C 0,0 km/h (0 Bft)
02.11.2013 20:00 9,9 C 95 % 1002,1 hPa 0,0 l/m 0,0 km/h (0 Bft) N 9,1 C 9,9 C 0,0 km/h (0 Bft)
02.11.2013 21:00 10,2 C 95 % 1002,1 hPa 0,0 l/m 0,7 km/h (0 Bft) S-SO 9,5 C 10,2 C 2,5 km/h (1 Bft)
02.11.2013 22:00 10,4 C 95 % 1002,0 hPa 0,2 l/m 1,7 km/h (1 Bft) S-SO 9,7 C 10,4 C 4,4 km/h (1 Bft)
02.11.2013 23:00 10,5 C 95 % 1001,6 hPa 0,0 l/m 2,0 km/h (1 Bft) S-SW 9,7 C 10,5 C 5,9 km/h (2 Bft)
03.11.2013 00:00 10,2 C 95 % 1000,7 hPa 0,0 l/m 3,4 km/h (1 Bft) S-SW 9,5 C 10,2 C 7,4 km/h (2 Bft)
03.11.2013 01:00 10,3 C 95 % 999,8 hPa 0,0 l/m 3,4 km/h (1 Bft) S-SW 9,5 C 10,3 C 8,4 km/h (2 Bft)
03.11.2013 02:00 10,4 C 93 % 998,8 hPa 0,0 l/m 3,9 km/h (1 Bft) S 9,3 C 10,4 C 9,0 km/h (2 Bft)
03.11.2013 03:00 10,4 C 92 % 998,0 hPa 0,0 l/m 3,8 km/h (1 Bft) S-SO 9,2 C 10,4 C 8,0 km/h (2 Bft)
03.11.2013 04:00 10,5 C 92 % 998,1 hPa 2,8 l/m 4,1 km/h (1 Bft) S-SW 9,3 C 10,3 C 12,1 km/h (2 Bft)
03.11.2013 05:00 9,3 C 92 % 998,2 hPa 1,2 l/m 4,5 km/h (1 Bft) S-SW 8,0 C 9,3 C 11,1 km/h (2 Bft)
03.11.2013 06:00 8,6 C 93 % 998,0 hPa 0,0 l/m 3,7 km/h (1 Bft) SW 7,5 C 8,6 C 8,4 km/h (2 Bft)
03.11.2013 07:00 8,0 C 93 % 997,9 hPa 0,2 l/m 2,9 km/h (1 Bft) S-SW 7,0 C 8,0 C 7,2 km/h (2 Bft)
03.11.2013 08:00 8,3 C 93 % 998,3 hPa 0,0 l/m 4,6 km/h (1 Bft) SW 7,2 C 8,3 C 11,3 km/h (2 Bft)
03.11.2013 09:00 9,2 C 91 % 998,5 hPa 0,0 l/m 5,7 km/h (2 Bft) S-SW 7,9 C 9,2 C 13,8 km/h (3 Bft)
03.11.2013 10:00 9,8 C 88 % 998,6 hPa 0,0 l/m 5,9 km/h (2 Bft) S-SW 7,9 C 9,7 C 15,0 km/h (3 Bft)
03.11.2013 11:00 9,8 C 87 % 998,7 hPa 0,4 l/m 6,1 km/h (2 Bft) SW 7,7 C 9,2 C 14,2 km/h (3 Bft)
03.11.2013 12:00 10,5 C 80 % 999,3 hPa 0,0 l/m 8,4 km/h (2 Bft) S-SW 7,2 C 9,2 C 20,1 km/h (4 Bft)
03.11.2013 13:00 10,5 C 78 % 999,5 hPa 0,0 l/m 6,8 km/h (2 Bft) W-NW 6,9 C 9,9 C 17,3 km/h (3 Bft)
03.11.2013 14:00 10,9 C 74 % 999,7 hPa 0,0 l/m 7,9 km/h (2 Bft) SW 6,3 C 9,8 C 18,2 km/h (3 Bft)
03.11.2013 15:00 10,2 C 73 % 1000,0 hPa 0,0 l/m 7,1 km/h (2 Bft) SW 5,6 C 9,5 C 17,2 km/h (3 Bft)
03.11.2013 16:00 9,5 C 74 % 1000,2 hPa 0,0 l/m 8,6 km/h (2 Bft) S-SW 5,1 C 7,9 C 20,9 km/h (4 Bft)
03.11.2013 17:00 8,0 C 78 % 1001,0 hPa 1,6 l/m 9,0 km/h (2 Bft) S-SW 4,4 C 6,1 C 22,3 km/h (4 Bft)
03.11.2013 18:00 5,3 C 91 % 1002,0 hPa 3,4 l/m 6,2 km/h (2 Bft) W 3,9 C 4,9 C 16,6 km/h (3 Bft)
03.11.2013 19:00 5,3 C 92 % 1001,4 hPa 0,6 l/m 5,7 km/h (2 Bft) S-SW 4,1 C 5,1 C 12,9 km/h (3 Bft)
03.11.2013 20:00 5,0 C 92 % 1001,1 hPa 0,0 l/m 4,3 km/h (1 Bft) SW 3,8 C 5,0 C 10,1 km/h (2 Bft)
03.11.2013 21:00 6,4 C 90 % 1001,0 hPa 0,6 l/m 7,4 km/h (2 Bft) SW 4,9 C 5,4 C 16,8 km/h (3 Bft)
03.11.2013 22:00 6,2 C 91 % 1001,0 hPa 1,0 l/m 5,3 km/h (1 Bft) S 4,8 C 5,7 C 13,2 km/h (3 Bft)
03.11.2013 23:00 5,9 C 91 % 1000,5 hPa 2,6 l/m 5,5 km/h (2 Bft) SW 4,6 C 5,5 C 13,2 km/h (3 Bft)
Min-Datum _ 31.10.13 31.10.13 28.10.13 - 30.10.13 - 31.10.13 31.10.13 30.10.13
_ Min-Zeit 06:40 13:55 13:55 - 06:05 - 06:15 06:40 06:05
Minimum _ 1,4 C 64 % 991,2 hPa - 0,0 km/h (0 Bft) - 0,5 C 1,4 C 0,0 km/h (0 Bft)
Max-Datum _ 28.10.13 02.11.13 31.10.13 03.11.13 28.10.13 - 28.10.13 28.10.13 28.10.13
_ Max-Zeit 14:20 22:35 01:15 18:40 11:11 - 12:05 13:35 15:15
Maximum _ 18,6 C 96 % 1025,9 hPa 3,4 l/m 24,1 km/h
S-SW (4 Bft)
- 13,2 C 16,1 C 51,5 km/h
S-SW (7 Bft)
Durchschnitt _ 9,4 C 84 % 1009,5 hPa #26,4 l/m 5,0 km/h (1 Bft) S-SW 6,8 C 8,9 C 11,8 km/h (2 Bft)